createdAt,value
2023-03-10T00:01:25.603Z,52250.97
2023-03-10T00:03:58.847Z,52269.05
2023-03-10T00:06:34.616Z,52262.22
2023-03-10T00:09:12.493Z,52235.30
2023-03-10T00:11:45.130Z,52268.65
2023-03-10T00:14:19.130Z,52261.42
2023-03-10T00:16:52.950Z,52254.19
2023-03-10T00:19:27.230Z,52242.93
2023-03-10T00:22:00.197Z,52255.39
2023-03-10T00:24:33.164Z,52255.39
2023-03-10T00:27:06.457Z,52260.21
2023-03-10T00:29:41.769Z,52277.09
2023-03-10T00:32:14.722Z,52263.43
2023-03-10T00:34:47.843Z,52265.04
2023-03-10T00:37:20.762Z,52261.82
2023-03-10T00:39:57.407Z,52249.77
2023-03-10T00:42:30.198Z,52248.16
2023-03-10T00:45:02.873Z,52236.91
2023-03-10T00:47:39.633Z,52257.00
2023-03-10T00:50:14.660Z,52266.64
2023-03-10T00:52:51.484Z,52258.61
2023-03-10T00:55:24.415Z,52256.20
2023-03-10T00:57:57.308Z,52256.20
2023-03-10T01:00:30.099Z,52252.98
2023-03-10T01:03:03.378Z,52268.66
2023-03-10T01:05:37.773Z,52250.57
2023-03-10T01:08:11.657Z,52269.46
2023-03-10T01:10:44.875Z,52256.60
2023-03-10T01:13:18.559Z,52265.04
2023-03-10T01:15:51.996Z,52262.23
2023-03-10T01:18:26.142Z,52267.45
2023-03-10T01:20:58.985Z,52269.46
2023-03-10T01:23:31.845Z,52267.85
2023-03-10T01:26:04.742Z,52264.63
2023-03-10T01:28:37.444Z,52256.20
2023-03-10T01:31:10.606Z,52262.23
2023-03-10T01:33:44.185Z,52291.16
2023-03-10T01:36:18.095Z,52259.81
2023-03-10T01:38:51.653Z,52255.39
2023-03-10T01:41:25.425Z,52259.01
2023-03-10T01:43:58.534Z,52255.79
2023-03-10T01:46:52.162Z,52261.42
2023-03-10T01:49:38.774Z,52254.19
2023-03-10T01:52:14.190Z,52254.59
2023-03-10T01:54:51.348Z,52258.21
2023-03-10T01:57:26.277Z,52246.55
2023-03-10T01:59:59.446Z,52252.98
2023-03-10T02:02:33.013Z,52246.15
2023-03-10T02:05:07.671Z,52272.67
2023-03-10T02:07:45.024Z,52252.18
2023-03-10T02:10:17.844Z,52265.44
2023-03-10T02:12:55.543Z,52253.38
2023-03-10T02:15:28.589Z,52252.58
2023-03-10T02:18:01.941Z,52238.52
2023-03-10T02:20:39.621Z,52241.73
2023-03-10T02:23:15.231Z,52259.81
2023-03-10T02:25:49.795Z,52249.36
2023-03-10T02:28:25.044Z,52251.77
2023-03-10T02:30:58.119Z,52246.96
2023-03-10T02:33:32.813Z,52257.40
2023-03-10T02:36:19.508Z,52258.21
2023-03-10T02:38:52.527Z,52259.01
2023-03-10T02:41:31.610Z,52240.12
2023-03-10T02:44:06.397Z,52251.37
2023-03-10T02:46:39.729Z,52248.96
2023-03-10T02:49:12.861Z,52243.34
2023-03-10T02:51:49.279Z,52250.17
2023-03-10T02:54:23.844Z,52258.21
2023-03-10T02:56:56.544Z,52251.78
2023-03-10T02:59:29.802Z,52234.90
2023-03-10T03:02:02.516Z,52227.66
2023-03-10T03:04:35.964Z,52237.71
2023-03-10T03:07:09.058Z,52240.52
2023-03-10T03:09:44.907Z,52241.73
2023-03-10T03:12:18.500Z,52267.85
2023-03-10T03:14:55.416Z,52244.14
2023-03-10T03:17:28.983Z,52244.14
2023-03-10T03:20:02.096Z,52257.80
2023-03-10T03:22:36.190Z,52251.77
2023-03-10T03:25:10.424Z,52262.63
2023-03-10T03:27:43.191Z,52248.56
2023-03-10T03:30:19.355Z,52248.16
2023-03-10T03:32:54.553Z,52243.34
2023-03-10T03:35:29.661Z,52249.36
2023-03-10T03:38:02.394Z,52253.38
2023-03-10T03:40:37.264Z,52260.62
2023-03-10T03:43:11.148Z,52267.45
2023-03-10T03:45:48.839Z,52259.81
2023-03-10T03:48:22.603Z,52267.85
2023-03-10T03:50:55.740Z,52249.77
2023-03-10T03:53:34.329Z,52266.24
2023-03-10T03:56:09.359Z,52257.40
2023-03-10T03:58:45.427Z,52270.66
2023-03-10T04:01:18.327Z,52274.68
2023-03-10T04:03:54.414Z,52257.40
2023-03-10T04:06:27.801Z,52267.05
2023-03-10T04:09:01.211Z,52253.38
2023-03-10T04:11:34.938Z,52245.35
2023-03-10T04:14:08.807Z,52262.63
2023-03-10T04:16:42.149Z,52261.82
2023-03-10T04:19:15.147Z,52255.39
2023-03-10T04:21:50.438Z,52269.05
2023-03-10T04:24:23.768Z,52277.50
2023-03-10T04:26:59.110Z,52268.66
2023-03-10T04:29:32.156Z,52255.39
2023-03-10T04:32:10.380Z,52267.45
2023-03-10T04:34:45.874Z,52266.24
2023-03-10T04:37:20.513Z,52250.97
2023-03-10T04:39:53.748Z,52263.02
2023-03-10T04:42:28.396Z,52238.51
2023-03-10T04:45:05.110Z,52260.21
2023-03-10T04:47:38.215Z,52255.79
2023-03-10T04:50:17.718Z,52263.03
2023-03-10T04:52:51.552Z,52268.65
2023-03-10T04:55:25.954Z,52260.62
2023-03-10T04:57:59.359Z,52269.86
2023-03-10T05:00:32.686Z,52252.98
2023-03-10T05:03:07.131Z,52266.64
2023-03-10T05:05:40.860Z,52269.46
2023-03-10T05:08:16.358Z,52246.55
2023-03-10T05:10:49.472Z,52246.15
2023-03-10T05:13:24.073Z,52271.47
2023-03-10T05:16:00.385Z,52271.07
2023-03-10T05:18:37.576Z,52257.40
2023-03-10T05:21:10.883Z,52258.61
2023-03-10T05:23:45.408Z,52265.44
2023-03-10T05:26:19.183Z,52261.02
2023-03-10T05:28:53.992Z,52257.80
2023-03-10T05:31:44.065Z,52277.09
2023-03-10T05:34:20.820Z,52265.44
2023-03-10T05:36:54.880Z,52249.77
2023-03-10T05:39:28.089Z,52257.00
2023-03-10T05:42:02.224Z,52274.28
2023-03-10T05:44:37.548Z,52277.49
2023-03-10T05:47:14.352Z,52255.79
2023-03-10T05:49:47.124Z,52263.83
2023-03-10T05:52:20.251Z,52260.62
2023-03-10T05:54:53.341Z,52245.75
2023-03-10T05:57:26.241Z,52254.99
2023-03-10T05:59:59.849Z,52256.20
2023-03-10T06:02:32.565Z,52239.32
2023-03-10T06:05:09.628Z,52256.20
2023-03-10T06:07:46.682Z,52273.48
2023-03-10T06:10:19.465Z,52266.24
2023-03-10T06:12:56.322Z,52244.54
2023-03-10T06:15:30.489Z,52238.91
2023-03-10T06:18:03.742Z,52257.80
2023-03-10T06:20:40.174Z,52250.17
2023-03-10T06:23:13.624Z,52243.74
2023-03-10T06:26:00.780Z,52238.11
2023-03-10T06:28:35.841Z,52225.25
2023-03-10T06:31:09.788Z,52234.50
2023-03-10T06:33:42.781Z,52224.05
2023-03-10T06:36:15.913Z,52224.85
2023-03-10T06:38:48.772Z,52203.55
2023-03-10T06:41:21.835Z,52214.80
2023-03-10T06:43:54.675Z,52207.97
2023-03-10T06:46:29.069Z,52190.69
2023-03-10T06:49:01.854Z,52223.24
2023-03-10T06:51:34.952Z,52199.94
2023-03-10T06:54:07.784Z,52207.17
2023-03-10T06:56:41.298Z,52216.81
2023-03-10T06:59:16.409Z,52180.25
2023-03-10T07:01:49.706Z,52175.02
2023-03-10T07:04:22.455Z,52166.59
2023-03-10T07:07:01.732Z,52177.43
2023-03-10T07:09:34.562Z,52168.99
2023-03-10T07:12:09.072Z,52169.80
2023-03-10T07:14:42.689Z,52168.99
2023-03-10T07:17:15.460Z,52179.84
2023-03-10T07:19:48.129Z,52177.03
2023-03-10T07:22:21.892Z,52169.80
2023-03-10T07:24:59.492Z,52165.38
2023-03-10T07:27:32.113Z,52163.37
2023-03-10T07:30:05.293Z,52179.44
2023-03-10T07:32:38.472Z,52161.36
2023-03-10T07:35:12.339Z,52154.52
2023-03-10T07:37:45.446Z,52156.94
2023-03-10T07:40:18.406Z,52170.60
2023-03-10T07:42:51.667Z,52165.78
2023-03-10T07:45:26.022Z,52164.57
2023-03-10T07:47:59.089Z,52168.99
2023-03-10T07:50:31.977Z,52157.74
2023-03-10T07:53:05.627Z,52158.15
2023-03-10T07:55:42.626Z,52156.54
2023-03-10T07:58:15.745Z,52162.96
2023-03-10T08:00:48.898Z,52149.70
2023-03-10T08:03:22.795Z,52159.75
2023-03-10T08:05:55.479Z,52144.08
2023-03-10T08:08:36.012Z,52143.27
2023-03-10T08:11:10.877Z,52156.13
2023-03-10T08:13:45.601Z,52154.52
2023-03-10T08:16:19.446Z,52139.66
2023-03-10T08:18:53.603Z,52139.66
2023-03-10T08:21:26.599Z,52146.89
2023-03-10T08:24:00.646Z,52153.73
2023-03-10T08:26:34.183Z,52123.18
2023-03-10T08:29:06.895Z,52134.43
2023-03-10T08:31:40.022Z,52155.73
2023-03-10T08:34:13.902Z,52140.86
2023-03-10T08:36:47.953Z,52142.07
2023-03-10T08:39:21.458Z,52127.60
2023-03-10T08:41:54.196Z,52128.81
2023-03-10T08:44:27.306Z,52127.20
2023-03-10T08:47:00.954Z,52120.77
2023-03-10T08:49:38.517Z,52117.16
2023-03-10T08:52:11.720Z,52121.57
2023-03-10T08:54:44.878Z,52082.59
2023-03-10T08:57:17.693Z,52097.06
2023-03-10T08:59:51.955Z,52083.00
2023-03-10T09:02:25.603Z,52063.30
2023-03-10T09:04:58.649Z,52081.39
2023-03-10T09:07:36.258Z,52085.81
2023-03-10T09:10:11.788Z,52072.95
2023-03-10T09:12:47.417Z,52063.30
2023-03-10T09:15:20.355Z,52066.52
2023-03-10T09:17:53.934Z,52064.91
2023-03-10T09:20:29.305Z,52045.23
2023-03-10T09:23:04.027Z,52046.43
2023-03-10T09:25:37.216Z,52036.38
2023-03-10T09:28:11.074Z,52039.20
2023-03-10T09:30:44.977Z,52018.70
2023-03-10T09:33:20.170Z,52012.27
2023-03-10T09:36:05.656Z,52012.27
2023-03-10T09:38:42.367Z,52013.88
2023-03-10T09:41:27.955Z,52019.11
2023-03-10T09:44:03.772Z,52007.45
2023-03-10T09:46:39.916Z,52028.75
2023-03-10T09:49:16.096Z,52001.82
2023-03-10T09:51:49.982Z,52002.63
2023-03-10T09:54:33.643Z,52003.84
2023-03-10T09:57:08.468Z,51996.20
2023-03-10T09:59:47.191Z,52007.05
2023-03-10T10:02:22.240Z,52009.86
2023-03-10T10:04:57.309Z,52005.04
2023-03-10T10:07:33.236Z,52000.62
2023-03-10T10:10:09.619Z,51983.34
2023-03-10T10:12:45.773Z,52007.45
2023-03-10T10:15:22.722Z,51991.78
2023-03-10T10:18:17.908Z,51984.95
2023-03-10T10:20:59.326Z,51996.20
2023-03-10T10:23:40.518Z,52013.48
2023-03-10T10:26:16.191Z,52001.82
2023-03-10T10:28:51.041Z,51987.36
2023-03-10T10:31:25.335Z,51978.92
2023-03-10T10:34:04.250Z,51978.11
2023-03-10T10:36:38.497Z,51976.51
2023-03-10T10:39:27.595Z,51984.55
2023-03-10T10:42:14.429Z,51961.64
2023-03-10T10:44:47.280Z,51952.80
2023-03-10T10:47:28.442Z,51963.65
2023-03-10T10:50:17.833Z,51960.84
2023-03-10T10:52:53.860Z,51943.96
2023-03-10T10:55:31.957Z,51926.28
2023-03-10T10:58:27.614Z,51933.51
2023-03-10T11:01:01.818Z,51933.11
2023-03-10T11:03:37.030Z,51933.11
2023-03-10T11:06:21.457Z,51938.74
2023-03-10T11:08:54.500Z,51934.32
2023-03-10T11:11:31.327Z,51929.09
2023-03-10T11:14:27.413Z,51933.52
2023-03-10T11:17:02.257Z,51969.27
2023-03-10T11:19:40.505Z,51961.24
2023-03-10T11:22:18.611Z,51995.80
2023-03-10T11:24:57.242Z,51977.71
2023-03-10T11:27:37.494Z,51989.37
2023-03-10T11:30:14.215Z,52008.66
2023-03-10T11:33:01.068Z,51993.39
2023-03-10T11:35:44.219Z,51971.69
2023-03-10T11:38:34.611Z,51965.66
2023-03-10T11:41:09.663Z,51968.47
2023-03-10T11:43:49.763Z,51938.34
2023-03-10T11:46:26.550Z,51947.98
2023-03-10T11:49:04.537Z,51945.97
2023-03-10T11:51:41.332Z,51946.77
2023-03-10T11:54:18.317Z,51950.39
2023-03-10T11:56:51.614Z,51953.61
2023-03-10T11:59:25.872Z,51953.21
2023-03-10T12:01:59.653Z,51944.36
2023-03-10T12:04:34.483Z,51959.63
2023-03-10T12:07:10.928Z,51924.27
2023-03-10T12:09:46.711Z,51943.55
2023-03-10T12:12:20.567Z,51934.72
2023-03-10T12:14:54.503Z,51935.52
2023-03-10T12:17:27.464Z,51925.48
2023-03-10T12:20:30.829Z,51894.94
2023-03-10T12:23:24.155Z,51929.09
2023-03-10T12:25:57.479Z,51912.62
2023-03-10T12:28:31.640Z,51935.52
2023-03-10T12:31:05.467Z,51925.48
2023-03-10T12:33:57.015Z,51914.23
2023-03-10T12:39:34.536Z,51903.78
2023-03-10T12:42:27.145Z,51917.04
2023-03-10T12:45:16.247Z,51923.07
2023-03-10T12:48:01.783Z,51930.30
2023-03-10T12:50:37.639Z,51925.88
2023-03-10T12:53:24.058Z,51913.82
2023-03-10T12:56:21.900Z,51947.18
2023-03-10T12:58:56.559Z,51921.86
2023-03-10T13:01:33.213Z,51917.84
2023-03-10T13:04:12.838Z,51905.79
2023-03-10T13:06:48.119Z,51901.77
2023-03-10T13:09:27.541Z,51902.18
2023-03-10T13:12:01.095Z,51894.94
2023-03-10T13:14:39.038Z,51894.14
2023-03-10T13:17:27.753Z,51896.54
2023-03-10T13:20:06.293Z,51878.46
2023-03-10T13:22:39.679Z,51876.05
2023-03-10T13:25:17.404Z,51886.90
2023-03-10T13:27:51.843Z,51868.82
2023-03-10T13:30:27.972Z,51876.85
2023-03-10T13:33:02.683Z,51867.61
2023-03-10T13:35:36.530Z,51879.67
2023-03-10T13:38:14.096Z,51875.65
2023-03-10T13:40:48.098Z,51873.64
2023-03-10T13:43:33.511Z,51884.89
2023-03-10T13:46:10.051Z,51879.27
2023-03-10T13:48:44.055Z,51883.69
2023-03-10T13:51:22.239Z,51881.68
2023-03-10T13:53:58.923Z,51886.10
2023-03-10T13:56:36.618Z,51866.41
2023-03-10T13:59:13.536Z,51868.42
2023-03-10T14:01:53.718Z,51860.38
2023-03-10T14:04:43.630Z,51852.75
2023-03-10T14:07:20.028Z,51852.34
2023-03-10T14:10:14.779Z,51844.30
2023-03-10T14:12:49.673Z,51858.37
2023-03-10T14:15:27.452Z,51845.91
2023-03-10T14:18:20.046Z,51850.74
2023-03-10T14:20:57.273Z,51853.95
2023-03-10T14:23:33.837Z,51861.59
2023-03-10T14:26:17.581Z,51864.80
2023-03-10T14:28:50.447Z,51885.29
2023-03-10T14:31:25.692Z,51893.73
2023-03-10T14:33:59.038Z,51881.68
2023-03-10T14:36:32.449Z,51886.90
2023-03-10T14:39:07.324Z,51899.76
2023-03-10T14:41:42.923Z,51912.62
2023-03-10T14:44:17.113Z,51900.96
2023-03-10T14:46:53.468Z,51915.84
2023-03-10T14:49:28.110Z,51924.68
2023-03-10T14:52:01.338Z,51938.74
2023-03-10T14:54:35.030Z,51931.91
2023-03-10T14:57:10.075Z,51964.86
2023-03-10T14:59:43.629Z,51981.33
2023-03-10T15:02:22.549Z,51976.11
2023-03-10T15:04:55.960Z,51982.94
2023-03-10T15:07:29.060Z,52005.44
2023-03-10T15:10:11.189Z,51994.99
2023-03-10T15:12:45.624Z,52017.10
2023-03-10T15:15:20.164Z,52035.98
2023-03-10T15:17:54.974Z,52052.86
2023-03-10T15:20:27.959Z,52042.41
2023-03-10T15:23:02.928Z,52037.59
2023-03-10T15:25:35.973Z,52055.67
2023-03-10T15:28:09.183Z,52070.14
2023-03-10T15:30:41.848Z,52066.52
2023-03-10T15:33:15.128Z,52079.78
2023-03-10T15:35:48.133Z,52079.78
2023-03-10T15:38:21.396Z,52082.60
2023-03-10T15:40:54.352Z,52082.20
2023-03-10T15:43:28.787Z,52078.18
2023-03-10T15:46:05.781Z,52089.43
2023-03-10T15:48:38.605Z,52099.88
2023-03-10T15:51:16.205Z,52112.33
2023-03-10T15:53:49.237Z,52104.70
2023-03-10T15:56:22.699Z,52106.71
2023-03-10T15:59:01.710Z,52117.96
2023-03-10T16:01:34.640Z,52112.73
2023-03-10T16:04:07.545Z,52123.59
2023-03-10T16:06:40.249Z,52133.23
2023-03-10T16:09:12.974Z,52123.59
2023-03-10T16:11:48.052Z,52139.66
2023-03-10T16:14:21.529Z,52144.48
2023-03-10T16:16:54.341Z,52154.13
2023-03-10T16:19:27.263Z,52148.10
2023-03-10T16:22:00.713Z,52154.13
2023-03-10T16:24:34.219Z,52159.35
2023-03-10T16:27:07.493Z,52149.30
2023-03-10T16:29:41.797Z,52172.61
2023-03-10T16:32:15.336Z,52159.35
2023-03-10T16:34:49.950Z,52172.61
2023-03-10T16:37:23.126Z,52164.97
2023-03-10T16:39:57.536Z,52173.41
2023-03-10T16:42:36.133Z,52173.01
2023-03-10T16:45:11.285Z,52174.22
2023-03-10T16:47:44.905Z,52170.20
2023-03-10T16:50:18.781Z,52200.34
2023-03-10T16:52:57.075Z,52178.64
2023-03-10T16:55:30.189Z,52201.95
2023-03-10T16:58:03.154Z,52187.48
2023-03-10T17:00:35.897Z,52196.32
2023-03-10T17:03:08.984Z,52176.63
2023-03-10T17:05:42.326Z,52198.73
2023-03-10T17:08:14.953Z,52211.59
2023-03-10T17:10:47.766Z,52197.12
2023-03-10T17:13:21.887Z,52197.52
2023-03-10T17:15:55.284Z,52201.14
2023-03-10T17:18:29.122Z,52192.70
2023-03-10T17:21:02.171Z,52191.90
2023-03-10T17:23:55.440Z,52223.64
2023-03-10T17:26:32.882Z,52219.23
2023-03-10T17:29:06.866Z,52211.99
2023-03-10T17:31:41.807Z,52201.54
2023-03-10T17:34:15.814Z,52200.74
2023-03-10T17:36:50.582Z,52221.23
2023-03-10T17:39:27.892Z,52202.35
2023-03-10T17:42:00.865Z,52214.80
2023-03-10T17:44:33.883Z,52226.05
2023-03-10T17:47:08.304Z,52207.17
2023-03-10T17:49:41.688Z,52216.81
2023-03-10T17:52:15.266Z,52216.01
2023-03-10T17:54:48.320Z,52215.61
2023-03-10T17:57:21.898Z,52221.23
2023-03-10T17:59:54.770Z,52214.80
2023-03-10T18:02:28.283Z,52230.48
2023-03-10T18:05:01.536Z,52207.57
2023-03-10T18:07:39.377Z,52227.66
2023-03-10T18:10:14.668Z,52222.84
2023-03-10T18:13:04.216Z,52239.72
2023-03-10T18:15:37.892Z,52220.03
2023-03-10T18:18:10.639Z,52213.60
2023-03-10T18:20:44.345Z,52240.13
2023-03-10T18:23:21.215Z,52222.44
2023-03-10T18:25:55.835Z,52245.35
2023-03-10T18:28:30.293Z,52232.09
2023-03-10T18:31:03.661Z,52248.56
2023-03-10T18:33:38.482Z,52214.80
2023-03-10T18:36:14.488Z,52236.91
2023-03-10T18:38:47.857Z,52246.95
2023-03-10T18:41:24.589Z,52232.09
2023-03-10T18:43:57.601Z,52220.03
2023-03-10T18:46:31.588Z,52223.64
2023-03-10T18:49:05.018Z,52215.21
2023-03-10T18:51:40.463Z,52239.32
2023-03-10T18:54:13.551Z,52242.13
2023-03-10T18:56:48.691Z,52234.90
2023-03-10T18:59:24.642Z,52255.39
2023-03-10T19:01:57.939Z,52241.33
2023-03-10T19:04:30.925Z,52258.61
2023-03-10T19:07:06.264Z,52212.80
2023-03-10T19:09:42.238Z,52234.49
2023-03-10T19:12:15.421Z,52238.11
2023-03-10T19:14:49.835Z,52244.14
2023-03-10T19:17:22.842Z,52251.77
2023-03-10T19:19:56.594Z,52237.71
2023-03-10T19:22:32.894Z,52243.74
2023-03-10T19:25:09.264Z,52260.62
2023-03-10T19:27:42.201Z,52237.71
2023-03-10T19:30:17.462Z,52241.33
2023-03-10T19:32:50.724Z,52235.30
2023-03-10T19:35:24.154Z,52246.55
2023-03-10T19:37:58.344Z,52246.15
2023-03-10T19:40:31.228Z,52242.13
2023-03-10T19:43:04.171Z,52265.84
2023-03-10T19:45:38.448Z,52257.40
2023-03-10T19:48:11.294Z,52249.36
2023-03-10T19:50:45.549Z,52255.80
2023-03-10T19:53:20.035Z,52252.58
2023-03-10T19:55:57.984Z,52251.77
2023-03-10T19:58:31.171Z,52256.20
2023-03-10T20:01:04.235Z,52267.45
2023-03-10T20:03:37.747Z,52268.25
2023-03-10T20:06:10.910Z,52252.98
2023-03-10T20:08:46.491Z,52242.53
2023-03-10T20:11:20.328Z,52244.14
2023-03-10T20:13:54.897Z,52250.98
2023-03-10T20:16:28.428Z,52248.56
2023-03-10T20:19:01.668Z,52254.19
2023-03-10T20:21:36.461Z,52259.81
2023-03-10T20:24:11.142Z,52248.16
2023-03-10T20:26:44.606Z,52266.65
2023-03-10T20:29:21.455Z,52275.48
2023-03-10T20:31:54.666Z,52255.39
2023-03-10T20:34:29.049Z,52255.79
2023-03-10T20:37:01.992Z,52255.39
2023-03-10T20:39:36.640Z,52267.45
2023-03-10T20:42:09.513Z,52256.60
2023-03-10T20:44:42.817Z,52263.43
2023-03-10T20:47:19.426Z,52273.08
2023-03-10T20:49:52.472Z,52253.79
2023-03-10T20:52:25.442Z,52269.46
2023-03-10T20:54:59.192Z,52266.24
2023-03-10T20:57:32.685Z,52254.59
2023-03-10T21:00:07.834Z,52271.47
2023-03-10T21:02:40.807Z,52268.25
2023-03-10T21:05:13.989Z,52269.05
2023-03-10T21:07:47.153Z,52258.61
2023-03-10T21:10:26.401Z,52283.52
2023-03-10T21:13:01.126Z,52289.15
2023-03-10T21:15:34.274Z,52263.03
2023-03-10T21:18:08.394Z,52277.90
2023-03-10T21:20:42.442Z,52265.44
2023-03-10T21:23:15.873Z,52259.81
2023-03-10T21:25:51.899Z,52267.45
2023-03-10T21:28:24.826Z,52265.84
2023-03-10T21:30:57.911Z,52277.90
2023-03-10T21:33:32.591Z,52280.30
2023-03-10T21:36:05.639Z,52254.59
2023-03-10T21:38:39.433Z,52277.90
2023-03-10T21:41:12.331Z,52270.66
2023-03-10T21:43:50.550Z,52276.29
2023-03-10T21:46:23.471Z,52278.70
2023-03-10T21:48:56.504Z,52278.70
2023-03-10T21:51:30.380Z,52275.89
2023-03-10T21:54:04.504Z,52254.19
2023-03-10T21:56:38.978Z,52275.88
2023-03-10T21:59:11.916Z,52291.16
2023-03-10T22:01:47.304Z,52277.49
2023-03-10T22:04:20.094Z,52300.40
2023-03-10T22:06:52.808Z,52293.17
2023-03-10T22:09:25.797Z,52281.51
2023-03-10T22:11:59.287Z,52289.55
2023-03-10T22:14:34.131Z,52277.49
2023-03-10T22:17:07.385Z,52291.56
2023-03-10T22:19:42.212Z,52265.84
2023-03-10T22:22:14.963Z,52280.71
2023-03-10T22:24:47.811Z,52300.00
2023-03-10T22:27:21.214Z,52292.76
2023-03-10T22:29:54.234Z,52298.79
2023-03-10T22:32:27.720Z,52298.80
2023-03-10T22:35:01.282Z,52286.74
2023-03-10T22:37:34.388Z,52285.53
2023-03-10T22:40:10.365Z,52277.09
2023-03-10T22:42:44.601Z,52295.58
2023-03-10T22:45:20.631Z,52290.76
2023-03-10T22:47:54.247Z,52297.99
2023-03-10T22:50:28.511Z,52300.00
2023-03-10T22:53:01.612Z,52293.98
2023-03-10T22:55:36.566Z,52292.77
2023-03-10T22:58:10.157Z,52293.17
2023-03-10T23:00:44.177Z,52305.23
2023-03-10T23:03:19.474Z,52296.79
2023-03-10T23:05:52.304Z,52312.05
2023-03-10T23:08:27.457Z,52304.02
2023-03-10T23:11:00.957Z,52307.64
2023-03-10T23:13:36.257Z,52300.80
2023-03-10T23:16:10.407Z,52295.98
2023-03-10T23:18:43.468Z,52299.20
2023-03-10T23:21:16.578Z,52306.03
2023-03-10T23:23:49.910Z,52303.62
2023-03-10T23:26:22.947Z,52305.63
2023-03-10T23:28:57.182Z,52295.18
2023-03-10T23:31:30.466Z,52301.61
2023-03-10T23:34:13.084Z,52319.29
2023-03-10T23:36:47.264Z,52294.38
2023-03-10T23:39:20.044Z,52290.36
2023-03-10T23:41:53.108Z,52292.37
2023-03-10T23:44:25.791Z,52302.01
2023-03-10T23:46:58.536Z,52296.79
2023-03-10T23:49:31.469Z,52305.22
2023-03-10T23:52:06.502Z,52297.19
2023-03-10T23:54:39.824Z,52303.62
2023-03-10T23:57:13.869Z,52296.78
2023-03-10T23:59:47.354Z,52285.13
